Odin — FAC8377 — position and weather

sailwx.info

Track history (hours):
 
Tides and Currents Weather Stations Pressure Air Temp Water Temp Dewpoint Dewpoint Depression Visibility Wind Speed Wind Dir Waves Ship Positions

Odin

Last reported at 2018-Jun-14 11:29 UTC. Time now 2018-Jun-20 05:34 UTC.
Position N 47°21' W 002°40'.

Length 10 m.

Type: Sailing vessel. MMSI: 227351010.

Date/timePositionNaut miles runAvg speedWind from/ knotsBaromVisibWave heightAir tempDewpointWater temp
2018-Jun-14 11:29N 47°21' W 002°40'16 4.5
2018-Jun-14 08:01N 47°21' W 003°03'0 4.8
2018-Jun-14 07:59N 47°21' W 003°03'2 4.7
2018-Jun-14 07:30N 47°21' W 003°06'2 4.1
2018-Jun-14 07:00N 47°22' W 003°09'2 4.3
2018-Jun-14 06:29N 47°23' W 003°12'0 0.9
2018-Jun-14 06:00N 47°23' W 003°13'0 0.0
2018-Jun-14 05:24N 47°23' W 003°13'0 0.0
2018-Jun-13 16:47N 47°23' W 003°13'0 0.0
2018-Jun-13 15:58N 47°23' W 003°13'0 0.0
2018-Jun-13 15:07N 47°23' W 003°13'0 0.0
2018-Jun-13 14:58N 47°23' W 003°13'0 0.0
2018-Jun-13 14:28N 47°23' W 003°13'2 3.3
2018-Jun-13 13:59N 47°22' W 003°11'2 3.6
2018-Jun-13 13:28N 47°23' W 003°08'  
Track history (hours):
 
Tides and Currents Weather Stations Pressure Air Temp Water Temp Dewpoint Dewpoint Depression Visibility Wind Speed Wind Dir Waves Ship Positions

Odin

Last reported at 2018-Jun-14 11:29 UTC. Time now 2018-Jun-20 05:34 UTC.
Position N 47°21' W 002°40'.

Length 10 m.

Type: Sailing vessel. MMSI: 227351010.

Date/timePositionNaut miles runAvg speedWind from/ knotsBaromVisibWave heightAir tempDewpointWater temp
2018-Jun-14 11:29N 47°21' W 002°40'16 4.5
2018-Jun-14 08:01N 47°21' W 003°03'0 4.8
2018-Jun-14 07:59N 47°21' W 003°03'2 4.7
2018-Jun-14 07:30N 47°21' W 003°06'2 4.1
2018-Jun-14 07:00N 47°22' W 003°09'2 4.3
2018-Jun-14 06:29N 47°23' W 003°12'0 0.9
2018-Jun-14 06:00N 47°23' W 003°13'0 0.0
2018-Jun-14 05:24N 47°23' W 003°13'0 0.0
2018-Jun-13 16:47N 47°23' W 003°13'0 0.0
2018-Jun-13 15:58N 47°23' W 003°13'0 0.0
2018-Jun-13 15:07N 47°23' W 003°13'0 0.0
2018-Jun-13 14:58N 47°23' W 003°13'0 0.0
2018-Jun-13 14:28N 47°23' W 003°13'2 3.3
2018-Jun-13 13:59N 47°22' W 003°11'2 3.6
2018-Jun-13 13:28N 47°23' W 003°08'  

Dump ship's entire track history